sensor_id;sensor_type;location;lat;lon;timestamp;P1;durP1;ratioP1;P2;durP2;ratioP2
66927;SDS011;59882;45.624;11.698;2022-10-16T00:00:30;99.57;;;64.68;;
66927;SDS011;59882;45.624;11.698;2022-10-16T00:02:56;103.57;;;66.20;;
66927;SDS011;59882;45.624;11.698;2022-10-16T00:05:22;99.00;;;64.95;;
66927;SDS011;59882;45.624;11.698;2022-10-16T00:07:47;106.10;;;67.83;;
66927;SDS011;59882;45.624;11.698;2022-10-16T00:10:13;102.45;;;64.25;;
66927;SDS011;59882;45.624;11.698;2022-10-16T00:12:39;102.93;;;66.23;;
66927;SDS011;59882;45.624;11.698;2022-10-16T00:15:04;96.87;;;63.97;;
66927;SDS011;59882;45.624;11.698;2022-10-16T00:17:31;103.50;;;67.25;;
66927;SDS011;59882;45.624;11.698;2022-10-16T00:19:56;99.50;;;64.97;;
66927;SDS011;59882;45.624;11.698;2022-10-16T00:22:22;101.73;;;65.90;;
66927;SDS011;59882;45.624;11.698;2022-10-16T00:27:22;97.10;;;63.95;;
66927;SDS011;59882;45.624;11.698;2022-10-16T00:29:51;99.72;;;67.25;;
66927;SDS011;59882;45.624;11.698;2022-10-16T00:32:20;99.25;;;66.22;;
66927;SDS011;59882;45.624;11.698;2022-10-16T00:34:46;102.28;;;66.03;;
66927;SDS011;59882;45.624;11.698;2022-10-16T00:37:12;106.97;;;69.30;;
66927;SDS011;59882;45.624;11.698;2022-10-16T00:39:38;109.18;;;68.93;;
66927;SDS011;59882;45.624;11.698;2022-10-16T00:42:04;108.83;;;70.50;;
66927;SDS011;59882;45.624;11.698;2022-10-16T00:49:53;107.38;;;68.70;;
66927;SDS011;59882;45.624;11.698;2022-10-16T00:52:21;110.75;;;69.80;;
66927;SDS011;59882;45.624;11.698;2022-10-16T00:54:47;108.07;;;68.10;;
66927;SDS011;59882;45.624;11.698;2022-10-16T00:57:15;106.45;;;69.22;;
66927;SDS011;59882;45.624;11.698;2022-10-16T00:59:41;109.77;;;69.43;;
66927;SDS011;59882;45.624;11.698;2022-10-16T01:02:09;105.63;;;68.30;;
66927;SDS011;59882;45.624;11.698;2022-10-16T01:04:38;105.07;;;71.47;;
66927;SDS011;59882;45.624;11.698;2022-10-16T01:13:21;110.23;;;69.77;;
66927;SDS011;59882;45.624;11.698;2022-10-16T01:15:55;107.97;;;68.95;;
66927;SDS011;59882;45.624;11.698;2022-10-16T01:21:02;107.15;;;69.28;;
66927;SDS011;59882;45.624;11.698;2022-10-16T01:28:57;110.55;;;70.38;;
66927;SDS011;59882;45.624;11.698;2022-10-16T01:31:31;108.63;;;71.45;;
66927;SDS011;59882;45.624;11.698;2022-10-16T01:34:05;114.55;;;71.38;;
66927;SDS011;59882;45.624;11.698;2022-10-16T01:36:39;112.30;;;69.57;;
66927;SDS011;59882;45.624;11.698;2022-10-16T01:39:10;111.03;;;69.50;;
66927;SDS011;59882;45.624;11.698;2022-10-16T01:41:38;107.15;;;70.15;;
66927;SDS011;59882;45.624;11.698;2022-10-16T01:44:10;108.78;;;70.55;;
66927;SDS011;59882;45.624;11.698;2022-10-16T01:46:45;110.95;;;71.78;;
66927;SDS011;59882;45.624;11.698;2022-10-16T01:49:13;109.93;;;71.28;;
66927;SDS011;59882;45.624;11.698;2022-10-16T01:51:41;116.43;;;73.67;;
66927;SDS011;59882;45.624;11.698;2022-10-16T01:54:12;110.68;;;70.40;;
66927;SDS011;59882;45.624;11.698;2022-10-16T01:56:40;111.45;;;71.43;;
66927;SDS011;59882;45.624;11.698;2022-10-16T01:59:11;110.18;;;71.60;;
66927;SDS011;59882;45.624;11.698;2022-10-16T02:01:40;114.43;;;72.53;;
66927;SDS011;59882;45.624;11.698;2022-10-16T02:04:21;111.90;;;72.17;;
66927;SDS011;59882;45.624;11.698;2022-10-16T02:07:00;111.00;;;69.57;;
66927;SDS011;59882;45.624;11.698;2022-10-16T02:09:26;116.40;;;72.35;;
66927;SDS011;59882;45.624;11.698;2022-10-16T02:11:55;107.23;;;70.97;;
66927;SDS011;59882;45.624;11.698;2022-10-16T02:14:24;111.15;;;71.00;;
66927;SDS011;59882;45.624;11.698;2022-10-16T02:16:51;109.70;;;70.57;;
66927;SDS011;59882;45.624;11.698;2022-10-16T02:19:17;116.23;;;70.57;;
66927;SDS011;59882;45.624;11.698;2022-10-16T02:21:50;119.65;;;70.93;;
66927;SDS011;59882;45.624;11.698;2022-10-16T02:30:38;113.22;;;69.35;;
66927;SDS011;59882;45.624;11.698;2022-10-16T02:33:16;108.97;;;67.70;;
66927;SDS011;59882;45.624;11.698;2022-10-16T02:35:44;110.10;;;70.55;;
66927;SDS011;59882;45.624;11.698;2022-10-16T02:38:13;107.82;;;70.53;;
66927;SDS011;59882;45.624;11.698;2022-10-16T02:40:40;117.57;;;69.68;;
66927;SDS011;59882;45.624;11.698;2022-10-16T02:43:07;112.13;;;69.57;;
66927;SDS011;59882;45.624;11.698;2022-10-16T02:45:33;107.67;;;67.03;;
66927;SDS011;59882;45.624;11.698;2022-10-16T02:47:59;105.32;;;67.38;;
66927;SDS011;59882;45.624;11.698;2022-10-16T02:50:25;115.60;;;70.90;;
66927;SDS011;59882;45.624;11.698;2022-10-16T02:52:50;104.95;;;67.90;;
66927;SDS011;59882;45.624;11.698;2022-10-16T02:55:16;109.90;;;69.63;;
66927;SDS011;59882;45.624;11.698;2022-10-16T02:57:42;110.32;;;69.22;;
66927;SDS011;59882;45.624;11.698;2022-10-16T03:00:11;112.20;;;69.17;;
66927;SDS011;59882;45.624;11.698;2022-10-16T03:02:38;112.68;;;71.50;;
66927;SDS011;59882;45.624;11.698;2022-10-16T03:05:04;112.80;;;71.35;;
66927;SDS011;59882;45.624;11.698;2022-10-16T03:07:30;115.17;;;68.93;;
66927;SDS011;59882;45.624;11.698;2022-10-16T03:09:55;109.90;;;69.07;;
66927;SDS011;59882;45.624;11.698;2022-10-16T03:12:21;109.27;;;69.47;;
66927;SDS011;59882;45.624;11.698;2022-10-16T03:14:47;111.43;;;69.25;;
66927;SDS011;59882;45.624;11.698;2022-10-16T03:17:13;108.60;;;67.57;;
66927;SDS011;59882;45.624;11.698;2022-10-16T03:19:41;107.07;;;69.17;;
66927;SDS011;59882;45.624;11.698;2022-10-16T03:22:07;111.63;;;68.43;;
66927;SDS011;59882;45.624;11.698;2022-10-16T03:24:33;104.32;;;66.57;;
66927;SDS011;59882;45.624;11.698;2022-10-16T03:26:58;101.30;;;65.87;;
66927;SDS011;59882;45.624;11.698;2022-10-16T03:29:25;109.15;;;70.70;;
66927;SDS011;59882;45.624;11.698;2022-10-16T03:31:51;114.47;;;68.93;;
66927;SDS011;59882;45.624;11.698;2022-10-16T03:34:17;104.37;;;67.07;;
66927;SDS011;59882;45.624;11.698;2022-10-16T03:36:42;109.63;;;70.03;;
66927;SDS011;59882;45.624;11.698;2022-10-16T03:39:08;110.20;;;68.70;;
66927;SDS011;59882;45.624;11.698;2022-10-16T03:41:34;115.23;;;68.97;;
66927;SDS011;59882;45.624;11.698;2022-10-16T03:43:59;108.07;;;67.43;;
66927;SDS011;59882;45.624;11.698;2022-10-16T03:46:25;112.30;;;68.33;;
66927;SDS011;59882;45.624;11.698;2022-10-16T03:48:50;111.57;;;70.13;;
66927;SDS011;59882;45.624;11.698;2022-10-16T03:51:16;106.10;;;67.67;;
66927;SDS011;59882;45.624;11.698;2022-10-16T03:53:41;110.70;;;67.60;;
66927;SDS011;59882;45.624;11.698;2022-10-16T03:56:07;104.53;;;68.32;;
66927;SDS011;59882;45.624;11.698;2022-10-16T03:58:33;113.73;;;70.67;;
66927;SDS011;59882;45.624;11.698;2022-10-16T04:00:58;113.50;;;70.93;;
66927;SDS011;59882;45.624;11.698;2022-10-16T04:03:24;115.27;;;69.63;;
66927;SDS011;59882;45.624;11.698;2022-10-16T04:05:49;108.57;;;67.77;;
66927;SDS011;59882;45.624;11.698;2022-10-16T04:08:15;106.27;;;65.40;;
66927;SDS011;59882;45.624;11.698;2022-10-16T04:10:44;114.25;;;71.25;;
66927;SDS011;59882;45.624;11.698;2022-10-16T04:13:10;106.20;;;67.90;;
66927;SDS011;59882;45.624;11.698;2022-10-16T04:15:37;113.27;;;69.17;;
66927;SDS011;59882;45.624;11.698;2022-10-16T04:18:02;107.80;;;66.43;;
66927;SDS011;59882;45.624;11.698;2022-10-16T04:20:29;108.78;;;67.97;;
66927;SDS011;59882;45.624;11.698;2022-10-16T04:22:55;104.70;;;65.60;;
66927;SDS011;59882;45.624;11.698;2022-10-16T04:25:21;108.45;;;67.85;;
66927;SDS011;59882;45.624;11.698;2022-10-16T04:27:46;111.15;;;69.18;;
66927;SDS011;59882;45.624;11.698;2022-10-16T04:30:12;107.53;;;67.73;;
66927;SDS011;59882;45.624;11.698;2022-10-16T04:32:38;109.50;;;64.97;;
66927;SDS011;59882;45.624;11.698;2022-10-16T04:35:04;106.93;;;67.22;;
66927;SDS011;59882;45.624;11.698;2022-10-16T04:37:30;110.70;;;66.83;;
66927;SDS011;59882;45.624;11.698;2022-10-16T04:39:56;107.97;;;68.00;;
66927;SDS011;59882;45.624;11.698;2022-10-16T04:42:21;100.50;;;65.80;;
66927;SDS011;59882;45.624;11.698;2022-10-16T04:44:47;111.93;;;67.22;;
66927;SDS011;59882;45.624;11.698;2022-10-16T04:47:13;105.63;;;66.40;;
66927;SDS011;59882;45.624;11.698;2022-10-16T04:49:39;105.07;;;66.72;;
66927;SDS011;59882;45.624;11.698;2022-10-16T04:52:04;106.80;;;66.90;;
66927;SDS011;59882;45.624;11.698;2022-10-16T04:54:30;107.35;;;65.63;;
66927;SDS011;59882;45.624;11.698;2022-10-16T04:56:56;107.47;;;63.53;;
66927;SDS011;59882;45.624;11.698;2022-10-16T04:59:22;101.70;;;65.07;;
66927;SDS011;59882;45.624;11.698;2022-10-16T05:01:48;100.78;;;65.35;;
66927;SDS011;59882;45.624;11.698;2022-10-16T05:04:14;101.05;;;63.92;;
66927;SDS011;59882;45.624;11.698;2022-10-16T05:06:40;101.73;;;62.67;;
66927;SDS011;59882;45.624;11.698;2022-10-16T05:09:06;98.00;;;62.33;;
66927;SDS011;59882;45.624;11.698;2022-10-16T05:11:33;96.10;;;62.63;;
66927;SDS011;59882;45.624;11.698;2022-10-16T05:13:59;97.00;;;60.20;;
66927;SDS011;59882;45.624;11.698;2022-10-16T05:16:25;100.07;;;63.58;;
66927;SDS011;59882;45.624;11.698;2022-10-16T05:18:51;97.35;;;62.40;;
66927;SDS011;59882;45.624;11.698;2022-10-16T05:21:17;99.87;;;64.13;;
66927;SDS011;59882;45.624;11.698;2022-10-16T05:23:43;97.35;;;62.60;;
66927;SDS011;59882;45.624;11.698;2022-10-16T05:26:08;98.70;;;61.20;;
66927;SDS011;59882;45.624;11.698;2022-10-16T05:28:34;101.10;;;63.20;;
66927;SDS011;59882;45.624;11.698;2022-10-16T05:31:04;98.23;;;61.97;;
66927;SDS011;59882;45.624;11.698;2022-10-16T05:33:34;98.97;;;60.30;;
66927;SDS011;59882;45.624;11.698;2022-10-16T05:36:00;98.18;;;61.13;;
66927;SDS011;59882;45.624;11.698;2022-10-16T05:38:36;96.40;;;60.38;;
66927;SDS011;59882;45.624;11.698;2022-10-16T05:41:02;96.95;;;61.72;;
66927;SDS011;59882;45.624;11.698;2022-10-16T05:43:29;95.40;;;60.37;;
66927;SDS011;59882;45.624;11.698;2022-10-16T05:45:56;94.90;;;59.53;;
66927;SDS011;59882;45.624;11.698;2022-10-16T05:48:23;95.95;;;60.75;;
66927;SDS011;59882;45.624;11.698;2022-10-16T05:50:59;98.15;;;61.53;;
66927;SDS011;59882;45.624;11.698;2022-10-16T05:53:27;90.60;;;59.28;;
66927;SDS011;59882;45.624;11.698;2022-10-16T05:55:55;92.87;;;58.97;;
66927;SDS011;59882;45.624;11.698;2022-10-16T05:58:21;93.20;;;58.90;;
66927;SDS011;59882;45.624;11.698;2022-10-16T06:00:58;92.15;;;58.97;;
66927;SDS011;59882;45.624;11.698;2022-10-16T06:03:25;93.10;;;58.40;;
66927;SDS011;59882;45.624;11.698;2022-10-16T06:05:51;94.97;;;59.47;;
66927;SDS011;59882;45.624;11.698;2022-10-16T06:08:18;92.57;;;59.15;;
66927;SDS011;59882;45.624;11.698;2022-10-16T06:10:44;94.60;;;59.00;;
66927;SDS011;59882;45.624;11.698;2022-10-16T06:13:11;90.70;;;58.70;;
66927;SDS011;59882;45.624;11.698;2022-10-16T06:15:37;89.05;;;56.17;;
66927;SDS011;59882;45.624;11.698;2022-10-16T06:18:04;85.03;;;56.07;;
66927;SDS011;59882;45.624;11.698;2022-10-16T06:20:30;92.28;;;57.20;;
66927;SDS011;59882;45.624;11.698;2022-10-16T06:22:56;89.40;;;58.90;;
66927;SDS011;59882;45.624;11.698;2022-10-16T06:25:22;84.33;;;53.47;;
66927;SDS011;59882;45.624;11.698;2022-10-16T06:27:48;87.13;;;55.22;;
66927;SDS011;59882;45.624;11.698;2022-10-16T06:30:13;82.07;;;56.00;;
66927;SDS011;59882;45.624;11.698;2022-10-16T06:32:39;82.60;;;54.85;;
66927;SDS011;59882;45.624;11.698;2022-10-16T06:35:04;89.43;;;56.33;;
66927;SDS011;59882;45.624;11.698;2022-10-16T06:37:30;87.25;;;56.65;;
66927;SDS011;59882;45.624;11.698;2022-10-16T06:39:56;98.17;;;58.13;;
66927;SDS011;59882;45.624;11.698;2022-10-16T06:42:21;92.33;;;56.80;;
66927;SDS011;59882;45.624;11.698;2022-10-16T06:44:47;98.70;;;60.35;;
66927;SDS011;59882;45.624;11.698;2022-10-16T06:47:13;87.40;;;55.80;;
66927;SDS011;59882;45.624;11.698;2022-10-16T06:49:38;92.82;;;56.95;;
66927;SDS011;59882;45.624;11.698;2022-10-16T06:52:04;87.90;;;56.03;;
66927;SDS011;59882;45.624;11.698;2022-10-16T06:54:30;85.60;;;54.90;;
66927;SDS011;59882;45.624;11.698;2022-10-16T06:56:55;91.67;;;57.73;;
66927;SDS011;59882;45.624;11.698;2022-10-16T06:59:21;93.78;;;58.67;;
66927;SDS011;59882;45.624;11.698;2022-10-16T07:01:47;99.33;;;60.13;;
66927;SDS011;59882;45.624;11.698;2022-10-16T07:04:13;100.15;;;61.03;;
66927;SDS011;59882;45.624;11.698;2022-10-16T07:06:38;90.97;;;59.63;;
66927;SDS011;59882;45.624;11.698;2022-10-16T07:09:05;97.10;;;60.33;;
66927;SDS011;59882;45.624;11.698;2022-10-16T07:11:32;97.35;;;61.75;;
66927;SDS011;59882;45.624;11.698;2022-10-16T07:13:59;96.45;;;60.28;;
66927;SDS011;59882;45.624;11.698;2022-10-16T07:16:28;98.80;;;59.63;;
66927;SDS011;59882;45.624;11.698;2022-10-16T07:18:55;95.95;;;61.03;;
66927;SDS011;59882;45.624;11.698;2022-10-16T07:21:23;95.72;;;61.03;;
66927;SDS011;59882;45.624;11.698;2022-10-16T07:23:51;96.97;;;62.35;;
66927;SDS011;59882;45.624;11.698;2022-10-16T07:26:17;91.87;;;58.97;;
66927;SDS011;59882;45.624;11.698;2022-10-16T07:28:43;91.18;;;59.35;;
66927;SDS011;59882;45.624;11.698;2022-10-16T07:31:10;92.68;;;59.50;;
66927;SDS011;59882;45.624;11.698;2022-10-16T07:33:38;89.87;;;59.20;;
66927;SDS011;59882;45.624;11.698;2022-10-16T07:36:06;91.57;;;58.13;;
66927;SDS011;59882;45.624;11.698;2022-10-16T07:38:32;89.63;;;58.97;;
66927;SDS011;59882;45.624;11.698;2022-10-16T07:41:02;89.70;;;57.85;;
66927;SDS011;59882;45.624;11.698;2022-10-16T07:43:30;90.15;;;57.78;;
66927;SDS011;59882;45.624;11.698;2022-10-16T07:45:56;88.93;;;56.33;;
66927;SDS011;59882;45.624;11.698;2022-10-16T07:48:22;84.05;;;56.35;;
66927;SDS011;59882;45.624;11.698;2022-10-16T07:50:52;85.65;;;57.85;;
66927;SDS011;59882;45.624;11.698;2022-10-16T07:53:21;86.60;;;55.50;;
66927;SDS011;59882;45.624;11.698;2022-10-16T07:55:47;82.13;;;55.83;;
66927;SDS011;59882;45.624;11.698;2022-10-16T07:58:12;82.53;;;55.90;;
66927;SDS011;59882;45.624;11.698;2022-10-16T08:00:38;81.70;;;56.10;;
66927;SDS011;59882;45.624;11.698;2022-10-16T08:03:03;79.20;;;53.90;;
66927;SDS011;59882;45.624;11.698;2022-10-16T08:05:29;78.20;;;54.50;;
66927;SDS011;59882;45.624;11.698;2022-10-16T08:07:57;80.63;;;55.85;;
66927;SDS011;59882;45.624;11.698;2022-10-16T08:10:24;81.15;;;56.80;;
66927;SDS011;59882;45.624;11.698;2022-10-16T08:12:51;76.32;;;55.78;;
66927;SDS011;59882;45.624;11.698;2022-10-16T08:15:17;83.33;;;56.10;;
66927;SDS011;59882;45.624;11.698;2022-10-16T08:17:43;77.22;;;54.65;;
66927;SDS011;59882;45.624;11.698;2022-10-16T08:20:09;80.55;;;54.13;;
66927;SDS011;59882;45.624;11.698;2022-10-16T08:22:35;79.63;;;56.58;;
66927;SDS011;59882;45.624;11.698;2022-10-16T08:25:01;88.13;;;57.17;;
66927;SDS011;59882;45.624;11.698;2022-10-16T08:27:32;80.28;;;55.20;;
66927;SDS011;59882;45.624;11.698;2022-10-16T08:29:58;89.38;;;57.05;;
66927;SDS011;59882;45.624;11.698;2022-10-16T08:32:23;80.30;;;56.03;;
66927;SDS011;59882;45.624;11.698;2022-10-16T08:34:49;78.03;;;55.30;;
66927;SDS011;59882;45.624;11.698;2022-10-16T08:37:14;75.27;;;55.13;;
66927;SDS011;59882;45.624;11.698;2022-10-16T08:39:40;80.67;;;55.20;;
66927;SDS011;59882;45.624;11.698;2022-10-16T08:48:10;79.77;;;55.80;;
66927;SDS011;59882;45.624;11.698;2022-10-16T08:50:51;85.68;;;56.72;;
66927;SDS011;59882;45.624;11.698;2022-10-16T08:53:29;79.95;;;56.13;;
66927;SDS011;59882;45.624;11.698;2022-10-16T08:56:02;80.10;;;55.67;;
66927;SDS011;59882;45.624;11.698;2022-10-16T08:58:29;78.53;;;55.07;;
66927;SDS011;59882;45.624;11.698;2022-10-16T09:00:56;77.05;;;55.45;;
66927;SDS011;59882;45.624;11.698;2022-10-16T09:03:41;75.45;;;53.55;;
66927;SDS011;59882;45.624;11.698;2022-10-16T09:06:35;78.97;;;56.25;;
66927;SDS011;59882;45.624;11.698;2022-10-16T09:12:17;76.40;;;53.63;;
66927;SDS011;59882;45.624;11.698;2022-10-16T09:15:00;77.47;;;53.75;;
66927;SDS011;59882;45.624;11.698;2022-10-16T09:22:35;78.57;;;53.40;;
66927;SDS011;59882;45.624;11.698;2022-10-16T09:25:01;73.07;;;52.88;;
66927;SDS011;59882;45.624;11.698;2022-10-16T09:27:46;77.65;;;54.83;;
66927;SDS011;59882;45.624;11.698;2022-10-16T09:30:14;77.35;;;55.47;;
66927;SDS011;59882;45.624;11.698;2022-10-16T09:32:46;81.20;;;56.07;;
66927;SDS011;59882;45.624;11.698;2022-10-16T09:35:16;81.15;;;56.33;;
66927;SDS011;59882;45.624;11.698;2022-10-16T09:37:45;79.57;;;55.92;;
66927;SDS011;59882;45.624;11.698;2022-10-16T09:40:28;81.63;;;56.22;;
66927;SDS011;59882;45.624;11.698;2022-10-16T09:43:03;79.30;;;54.72;;
66927;SDS011;59882;45.624;11.698;2022-10-16T09:45:39;80.87;;;55.13;;
66927;SDS011;59882;45.624;11.698;2022-10-16T09:48:11;82.63;;;55.85;;
66927;SDS011;59882;45.624;11.698;2022-10-16T09:50:38;79.80;;;55.10;;
66927;SDS011;59882;45.624;11.698;2022-10-16T09:53:05;82.25;;;57.22;;
66927;SDS011;59882;45.624;11.698;2022-10-16T09:55:36;77.97;;;54.17;;
66927;SDS011;59882;45.624;11.698;2022-10-16T09:58:12;80.43;;;55.05;;
66927;SDS011;59882;45.624;11.698;2022-10-16T10:00:39;74.13;;;52.03;;
66927;SDS011;59882;45.624;11.698;2022-10-16T10:03:10;78.93;;;54.03;;
66927;SDS011;59882;45.624;11.698;2022-10-16T10:05:37;73.70;;;53.22;;
66927;SDS011;59882;45.624;11.698;2022-10-16T10:08:05;71.13;;;49.27;;
66927;SDS011;59882;45.624;11.698;2022-10-16T10:10:36;71.40;;;48.90;;
66927;SDS011;59882;45.624;11.698;2022-10-16T10:13:16;72.68;;;51.08;;
66927;SDS011;59882;45.624;11.698;2022-10-16T10:15:46;74.03;;;50.45;;
66927;SDS011;59882;45.624;11.698;2022-10-16T10:18:16;74.93;;;50.22;;
66927;SDS011;59882;45.624;11.698;2022-10-16T10:20:57;72.83;;;50.87;;
66927;SDS011;59882;45.624;11.698;2022-10-16T10:23:25;71.60;;;49.08;;
66927;SDS011;59882;45.624;11.698;2022-10-16T10:26:04;70.53;;;48.85;;
66927;SDS011;59882;45.624;11.698;2022-10-16T10:37:24;67.00;;;48.38;;
66927;SDS011;59882;45.624;11.698;2022-10-16T10:39:56;72.30;;;48.55;;
66927;SDS011;59882;45.624;11.698;2022-10-16T10:42:39;64.80;;;47.00;;
66927;SDS011;59882;45.624;11.698;2022-10-16T10:45:17;64.43;;;44.35;;
66927;SDS011;59882;45.624;11.698;2022-10-16T10:50:40;62.63;;;44.45;;
66927;SDS011;59882;45.624;11.698;2022-10-16T10:59:19;58.78;;;41.35;;
66927;SDS011;59882;45.624;11.698;2022-10-16T11:04:55;58.85;;;41.08;;
66927;SDS011;59882;45.624;11.698;2022-10-16T11:07:25;55.60;;;40.22;;
66927;SDS011;59882;45.624;11.698;2022-10-16T11:09:59;55.35;;;40.47;;
66927;SDS011;59882;45.624;11.698;2022-10-16T11:15:04;56.57;;;41.60;;
66927;SDS011;59882;45.624;11.698;2022-10-16T11:17:38;55.92;;;40.65;;
66927;SDS011;59882;45.624;11.698;2022-10-16T11:20:29;55.33;;;39.80;;
66927;SDS011;59882;45.624;11.698;2022-10-16T11:25:32;55.78;;;38.78;;
66927;SDS011;59882;45.624;11.698;2022-10-16T11:30:57;51.17;;;36.10;;
66927;SDS011;59882;45.624;11.698;2022-10-16T11:36:29;49.25;;;37.15;;
66927;SDS011;59882;45.624;11.698;2022-10-16T11:39:00;45.93;;;35.83;;
66927;SDS011;59882;45.624;11.698;2022-10-16T11:49:47;41.40;;;32.55;;
66927;SDS011;59882;45.624;11.698;2022-10-16T11:52:23;51.00;;;33.07;;
66927;SDS011;59882;45.624;11.698;2022-10-16T11:54:57;44.20;;;32.58;;
66927;SDS011;59882;45.624;11.698;2022-10-16T11:57:33;47.42;;;34.72;;
66927;SDS011;59882;45.624;11.698;2022-10-16T12:08:11;50.22;;;36.92;;
66927;SDS011;59882;45.624;11.698;2022-10-16T12:10:40;44.75;;;34.20;;
66927;SDS011;59882;45.624;11.698;2022-10-16T12:18:41;46.40;;;35.50;;
66927;SDS011;59882;45.624;11.698;2022-10-16T12:21:09;41.28;;;33.45;;
66927;SDS011;59882;45.624;11.698;2022-10-16T12:26:23;45.70;;;33.95;;
66927;SDS011;59882;45.624;11.698;2022-10-16T12:31:53;44.97;;;33.73;;
66927;SDS011;59882;45.624;11.698;2022-10-16T12:37:10;46.53;;;34.13;;
66927;SDS011;59882;45.624;11.698;2022-10-16T12:39:43;45.65;;;34.55;;
66927;SDS011;59882;45.624;11.698;2022-10-16T12:44:54;45.75;;;34.75;;
66927;SDS011;59882;45.624;11.698;2022-10-16T12:47:35;41.88;;;33.63;;
66927;SDS011;59882;45.624;11.698;2022-10-16T12:50:03;40.97;;;33.78;;
66927;SDS011;59882;45.624;11.698;2022-10-16T12:52:48;43.40;;;34.78;;
66927;SDS011;59882;45.624;11.698;2022-10-16T12:55:15;45.23;;;35.70;;
66927;SDS011;59882;45.624;11.698;2022-10-16T13:00:36;42.50;;;35.40;;
66927;SDS011;59882;45.624;11.698;2022-10-16T13:14:11;43.45;;;34.70;;
66927;SDS011;59882;45.624;11.698;2022-10-16T13:29:58;47.42;;;35.88;;
66927;SDS011;59882;45.624;11.698;2022-10-16T13:32:38;46.10;;;34.22;;
66927;SDS011;59882;45.624;11.698;2022-10-16T13:35:17;45.60;;;34.83;;
66927;SDS011;59882;45.624;11.698;2022-10-16T13:37:47;40.70;;;35.10;;
66927;SDS011;59882;45.624;11.698;2022-10-16T13:42:49;44.28;;;36.38;;
66927;SDS011;59882;45.624;11.698;2022-10-16T13:45:22;41.33;;;35.37;;
66927;SDS011;59882;45.624;11.698;2022-10-16T13:47:50;41.78;;;34.90;;
66927;SDS011;59882;45.624;11.698;2022-10-16T13:50:26;45.42;;;35.42;;
66927;SDS011;59882;45.624;11.698;2022-10-16T13:53:02;41.30;;;34.97;;
66927;SDS011;59882;45.624;11.698;2022-10-16T13:55:29;43.08;;;34.10;;
66927;SDS011;59882;45.624;11.698;2022-10-16T13:58:04;41.78;;;34.85;;
66927;SDS011;59882;45.624;11.698;2022-10-16T14:00:39;39.97;;;32.72;;
66927;SDS011;59882;45.624;11.698;2022-10-16T14:03:17;38.40;;;32.75;;
66927;SDS011;59882;45.624;11.698;2022-10-16T14:05:46;42.20;;;33.13;;
66927;SDS011;59882;45.624;11.698;2022-10-16T14:08:14;41.17;;;33.15;;
66927;SDS011;59882;45.624;11.698;2022-10-16T14:10:41;41.38;;;34.30;;
66927;SDS011;59882;45.624;11.698;2022-10-16T14:13:07;37.77;;;30.47;;
66927;SDS011;59882;45.624;11.698;2022-10-16T14:15:38;42.55;;;34.17;;
66927;SDS011;59882;45.624;11.698;2022-10-16T14:18:04;41.28;;;33.83;;
66927;SDS011;59882;45.624;11.698;2022-10-16T14:20:31;43.05;;;34.05;;
66927;SDS011;59882;45.624;11.698;2022-10-16T14:28:35;44.83;;;36.60;;
66927;SDS011;59882;45.624;11.698;2022-10-16T14:33:57;46.97;;;36.08;;
66927;SDS011;59882;45.624;11.698;2022-10-16T14:36:24;48.77;;;35.13;;
66927;SDS011;59882;45.624;11.698;2022-10-16T14:41:40;46.53;;;36.38;;
66927;SDS011;59882;45.624;11.698;2022-10-16T14:44:11;47.63;;;36.75;;
66927;SDS011;59882;45.624;11.698;2022-10-16T14:46:39;52.38;;;40.13;;
66927;SDS011;59882;45.624;11.698;2022-10-16T14:51:35;49.63;;;37.10;;
66927;SDS011;59882;45.624;11.698;2022-10-16T14:54:02;50.67;;;37.85;;
66927;SDS011;59882;45.624;11.698;2022-10-16T14:56:29;49.13;;;38.03;;
66927;SDS011;59882;45.624;11.698;2022-10-16T14:58:59;52.17;;;37.45;;
66927;SDS011;59882;45.624;11.698;2022-10-16T15:01:25;48.63;;;37.73;;
66927;SDS011;59882;45.624;11.698;2022-10-16T15:03:51;51.15;;;39.25;;
66927;SDS011;59882;45.624;11.698;2022-10-16T15:06:19;50.55;;;40.38;;
66927;SDS011;59882;45.624;11.698;2022-10-16T15:08:45;54.20;;;39.73;;
66927;SDS011;59882;45.624;11.698;2022-10-16T15:11:11;55.33;;;40.20;;
66927;SDS011;59882;45.624;11.698;2022-10-16T15:13:39;55.37;;;40.53;;
66927;SDS011;59882;45.624;11.698;2022-10-16T15:16:07;54.80;;;40.08;;
66927;SDS011;59882;45.624;11.698;2022-10-16T15:18:36;59.72;;;42.38;;
66927;SDS011;59882;45.624;11.698;2022-10-16T15:21:02;55.00;;;39.93;;
66927;SDS011;59882;45.624;11.698;2022-10-16T15:23:27;55.17;;;39.20;;
66927;SDS011;59882;45.624;11.698;2022-10-16T15:25:54;50.75;;;38.28;;
66927;SDS011;59882;45.624;11.698;2022-10-16T15:28:21;51.80;;;38.92;;
66927;SDS011;59882;45.624;11.698;2022-10-16T15:30:52;53.40;;;39.05;;
66927;SDS011;59882;45.624;11.698;2022-10-16T15:33:23;52.13;;;39.45;;
66927;SDS011;59882;45.624;11.698;2022-10-16T15:35:52;51.60;;;38.03;;
66927;SDS011;59882;45.624;11.698;2022-10-16T15:38:19;53.45;;;38.92;;
66927;SDS011;59882;45.624;11.698;2022-10-16T15:40:46;53.05;;;38.47;;
66927;SDS011;59882;45.624;11.698;2022-10-16T15:43:13;56.20;;;38.55;;
66927;SDS011;59882;45.624;11.698;2022-10-16T15:45:39;55.13;;;39.40;;
66927;SDS011;59882;45.624;11.698;2022-10-16T15:48:05;50.43;;;38.23;;
66927;SDS011;59882;45.624;11.698;2022-10-16T15:50:31;52.92;;;39.22;;
66927;SDS011;59882;45.624;11.698;2022-10-16T15:52:57;53.65;;;39.28;;
66927;SDS011;59882;45.624;11.698;2022-10-16T15:55:22;49.53;;;36.43;;
66927;SDS011;59882;45.624;11.698;2022-10-16T15:57:48;52.90;;;37.47;;
66927;SDS011;59882;45.624;11.698;2022-10-16T16:00:15;58.23;;;39.37;;
66927;SDS011;59882;45.624;11.698;2022-10-16T16:02:43;55.42;;;39.35;;
66927;SDS011;59882;45.624;11.698;2022-10-16T16:05:14;54.38;;;39.45;;
66927;SDS011;59882;45.624;11.698;2022-10-16T16:07:40;56.22;;;39.88;;
66927;SDS011;59882;45.624;11.698;2022-10-16T16:10:07;54.57;;;38.97;;
66927;SDS011;59882;45.624;11.698;2022-10-16T16:12:34;52.85;;;39.50;;
66927;SDS011;59882;45.624;11.698;2022-10-16T16:15:00;58.85;;;39.63;;
66927;SDS011;59882;45.624;11.698;2022-10-16T16:17:26;59.13;;;41.27;;
66927;SDS011;59882;45.624;11.698;2022-10-16T16:19:51;61.83;;;42.78;;
66927;SDS011;59882;45.624;11.698;2022-10-16T16:22:17;61.83;;;42.57;;
66927;SDS011;59882;45.624;11.698;2022-10-16T16:24:43;54.00;;;38.38;;
66927;SDS011;59882;45.624;11.698;2022-10-16T16:27:09;58.20;;;41.63;;
66927;SDS011;59882;45.624;11.698;2022-10-16T16:29:35;57.08;;;41.35;;
66927;SDS011;59882;45.624;11.698;2022-10-16T16:32:01;56.33;;;40.67;;
66927;SDS011;59882;45.624;11.698;2022-10-16T16:34:27;57.10;;;40.75;;
66927;SDS011;59882;45.624;11.698;2022-10-16T16:36:54;55.73;;;38.67;;
66927;SDS011;59882;45.624;11.698;2022-10-16T16:39:20;57.53;;;40.95;;
66927;SDS011;59882;45.624;11.698;2022-10-16T16:41:46;59.78;;;41.78;;
66927;SDS011;59882;45.624;11.698;2022-10-16T16:44:12;61.65;;;42.28;;